sensor_id;sensor_type;location;lat;lon;timestamp;temperature;humidity
9329;DHT22;4703;48.748;19.142;2023-10-08T00:00:26;16.90;97.50
9329;DHT22;4703;48.748;19.142;2023-10-08T00:03:12;16.80;97.60
9329;DHT22;4703;48.748;19.142;2023-10-08T00:05:40;16.80;97.60
9329;DHT22;4703;48.748;19.142;2023-10-08T00:08:08;16.80;97.70
9329;DHT22;4703;48.748;19.142;2023-10-08T00:10:37;16.80;97.50
9329;DHT22;4703;48.748;19.142;2023-10-08T00:13:08;16.80;97.50
9329;DHT22;4703;48.748;19.142;2023-10-08T00:15:36;16.80;97.60
9329;DHT22;4703;48.748;19.142;2023-10-08T00:18:04;16.70;97.70
9329;DHT22;4703;48.748;19.142;2023-10-08T00:20:37;16.80;97.70
9329;DHT22;4703;48.748;19.142;2023-10-08T00:23:43;16.80;97.70
9329;DHT22;4703;48.748;19.142;2023-10-08T00:26:16;16.90;97.50
9329;DHT22;4703;48.748;19.142;2023-10-08T00:28:47;16.80;97.40
9329;DHT22;4703;48.748;19.142;2023-10-08T00:31:14;18.10;98.30
9329;DHT22;4703;48.748;19.142;2023-10-08T00:33:44;16.80;97.60
9329;DHT22;4703;48.748;19.142;2023-10-08T00:36:11;16.80;97.80
9329;DHT22;4703;48.748;19.142;2023-10-08T00:38:46;16.80;97.80
9329;DHT22;4703;48.748;19.142;2023-10-08T00:41:27;14.90;97.00
9329;DHT22;4703;48.748;19.142;2023-10-08T00:44:00;16.80;98.00
9329;DHT22;4703;48.748;19.142;2023-10-08T00:46:29;16.80;97.90
9329;DHT22;4703;48.748;19.142;2023-10-08T00:49:03;16.80;97.80
9329;DHT22;4703;48.748;19.142;2023-10-08T00:51:59;16.80;97.90
9329;DHT22;4703;48.748;19.142;2023-10-08T00:54:36;16.80;98.00
9329;DHT22;4703;48.748;19.142;2023-10-08T00:57:28;16.80;98.00
9329;DHT22;4703;48.748;19.142;2023-10-08T01:00:04;16.80;98.00
9329;DHT22;4703;48.748;19.142;2023-10-08T01:02:43;16.80;98.20
9329;DHT22;4703;48.748;19.142;2023-10-08T01:05:17;16.80;98.20
9329;DHT22;4703;48.748;19.142;2023-10-08T01:08:07;16.80;98.20
9329;DHT22;4703;48.748;19.142;2023-10-08T01:10:35;16.80;98.30
9329;DHT22;4703;48.748;19.142;2023-10-08T01:13:02;16.70;98.70
9329;DHT22;4703;48.748;19.142;2023-10-08T01:15:32;16.70;99.20
9329;DHT22;4703;48.748;19.142;2023-10-08T01:18:03;16.70;99.60
9329;DHT22;4703;48.748;19.142;2023-10-08T01:20:31;16.60;99.90
9329;DHT22;4703;48.748;19.142;2023-10-08T01:23:05;16.60;99.90
9329;DHT22;4703;48.748;19.142;2023-10-08T01:25:40;16.60;99.90
9329;DHT22;4703;48.748;19.142;2023-10-08T01:28:09;16.50;99.90
9329;DHT22;4703;48.748;19.142;2023-10-08T01:30:59;16.50;99.90
9329;DHT22;4703;48.748;19.142;2023-10-08T01:33:31;16.50;99.90
9329;DHT22;4703;48.748;19.142;2023-10-08T01:35:59;16.40;99.90
9329;DHT22;4703;48.748;19.142;2023-10-08T01:38:31;16.40;99.90
9329;DHT22;4703;48.748;19.142;2023-10-08T01:41:02;16.40;99.90
9329;DHT22;4703;48.748;19.142;2023-10-08T01:43:46;16.30;99.90
9329;DHT22;4703;48.748;19.142;2023-10-08T01:46:14;16.30;99.90
9329;DHT22;4703;48.748;19.142;2023-10-08T01:48:42;16.20;99.90
9329;DHT22;4703;48.748;19.142;2023-10-08T01:51:12;16.20;99.90
9329;DHT22;4703;48.748;19.142;2023-10-08T01:53:53;16.20;99.90
9329;DHT22;4703;48.748;19.142;2023-10-08T01:56:22;16.20;99.90
9329;DHT22;4703;48.748;19.142;2023-10-08T01:58:49;16.60;99.90
9329;DHT22;4703;48.748;19.142;2023-10-08T02:01:20;16.20;99.90
9329;DHT22;4703;48.748;19.142;2023-10-08T02:03:47;16.10;99.90
9329;DHT22;4703;48.748;19.142;2023-10-08T02:06:15;16.30;99.90
9329;DHT22;4703;48.748;19.142;2023-10-08T02:08:42;16.10;99.90
9329;DHT22;4703;48.748;19.142;2023-10-08T02:11:09;16.10;99.90
9329;DHT22;4703;48.748;19.142;2023-10-08T02:13:40;16.60;99.90
9329;DHT22;4703;48.748;19.142;2023-10-08T02:16:07;16.10;99.90
9329;DHT22;4703;48.748;19.142;2023-10-08T02:18:34;16.10;99.90
9329;DHT22;4703;48.748;19.142;2023-10-08T02:21:01;16.50;99.90
9329;DHT22;4703;48.748;19.142;2023-10-08T02:23:29;16.20;99.90
9329;DHT22;4703;48.748;19.142;2023-10-08T02:25:56;16.00;99.90
9329;DHT22;4703;48.748;19.142;2023-10-08T02:28:24;16.00;99.90
9329;DHT22;4703;48.748;19.142;2023-10-08T02:30:52;18.30;99.90
9329;DHT22;4703;48.748;19.142;2023-10-08T02:33:19;16.10;99.90
9329;DHT22;4703;48.748;19.142;2023-10-08T02:35:47;16.00;99.90
9329;DHT22;4703;48.748;19.142;2023-10-08T02:38:17;16.00;99.90
9329;DHT22;4703;48.748;19.142;2023-10-08T02:40:45;16.00;99.90
9329;DHT22;4703;48.748;19.142;2023-10-08T02:43:15;16.00;99.90
9329;DHT22;4703;48.748;19.142;2023-10-08T02:45:43;16.00;99.90
9329;DHT22;4703;48.748;19.142;2023-10-08T02:48:16;16.00;99.90
9329;DHT22;4703;48.748;19.142;2023-10-08T02:50:45;16.00;99.90
9329;DHT22;4703;48.748;19.142;2023-10-08T02:53:12;16.40;99.90
9329;DHT22;4703;48.748;19.142;2023-10-08T02:55:44;16.00;99.90
9329;DHT22;4703;48.748;19.142;2023-10-08T02:58:14;16.20;99.90
9329;DHT22;4703;48.748;19.142;2023-10-08T03:00:43;16.00;99.90
9329;DHT22;4703;48.748;19.142;2023-10-08T03:03:17;16.10;99.90
9329;DHT22;4703;48.748;19.142;2023-10-08T03:05:47;16.20;99.90
9329;DHT22;4703;48.748;19.142;2023-10-08T03:08:17;16.20;99.90
9329;DHT22;4703;48.748;19.142;2023-10-08T03:10:49;16.50;99.90
9329;DHT22;4703;48.748;19.142;2023-10-08T03:13:29;16.10;99.90
9329;DHT22;4703;48.748;19.142;2023-10-08T03:15:56;16.30;99.90
9329;DHT22;4703;48.748;19.142;2023-10-08T03:18:26;16.00;99.90
9329;DHT22;4703;48.748;19.142;2023-10-08T03:21:04;16.20;99.90
9329;DHT22;4703;48.748;19.142;2023-10-08T03:23:32;16.10;99.90
9329;DHT22;4703;48.748;19.142;2023-10-08T03:26:04;16.10;99.90
9329;DHT22;4703;48.748;19.142;2023-10-08T03:29:00;16.10;99.90
9329;DHT22;4703;48.748;19.142;2023-10-08T03:31:34;16.10;99.90
9329;DHT22;4703;48.748;19.142;2023-10-08T03:34:17;16.10;99.90
9329;DHT22;4703;48.748;19.142;2023-10-08T03:36:47;16.10;99.90
9329;DHT22;4703;48.748;19.142;2023-10-08T03:39:17;16.90;99.90
9329;DHT22;4703;48.748;19.142;2023-10-08T03:41:49;17.90;99.90
9329;DHT22;4703;48.748;19.142;2023-10-08T03:44:32;16.10;99.90
9329;DHT22;4703;48.748;19.142;2023-10-08T03:47:03;16.10;99.90
9329;DHT22;4703;48.748;19.142;2023-10-08T03:49:38;16.10;99.90
9329;DHT22;4703;48.748;19.142;2023-10-08T03:52:12;16.10;99.90
9329;DHT22;4703;48.748;19.142;2023-10-08T03:54:42;16.10;99.90
9329;DHT22;4703;48.748;19.142;2023-10-08T03:57:15;16.00;99.90
9329;DHT22;4703;48.748;19.142;2023-10-08T03:59:52;16.00;99.90
9329;DHT22;4703;48.748;19.142;2023-10-08T04:02:25;16.10;99.90
9329;DHT22;4703;48.748;19.142;2023-10-08T04:05:08;16.00;99.90
9329;DHT22;4703;48.748;19.142;2023-10-08T04:07:48;16.10;99.90
9329;DHT22;4703;48.748;19.142;2023-10-08T04:10:32;16.00;99.90
9329;DHT22;4703;48.748;19.142;2023-10-08T04:13:07;16.00;99.90
9329;DHT22;4703;48.748;19.142;2023-10-08T04:15:36;16.00;99.90
9329;DHT22;4703;48.748;19.142;2023-10-08T04:18:08;16.60;99.90
9329;DHT22;4703;48.748;19.142;2023-10-08T04:20:41;16.00;99.90
9329;DHT22;4703;48.748;19.142;2023-10-08T04:23:27;16.00;99.90
9329;DHT22;4703;48.748;19.142;2023-10-08T04:25:56;16.00;99.90
9329;DHT22;4703;48.748;19.142;2023-10-08T04:28:23;16.00;99.90
9329;DHT22;4703;48.748;19.142;2023-10-08T04:30:55;16.10;99.90
9329;DHT22;4703;48.748;19.142;2023-10-08T04:33:28;16.10;99.90
9329;DHT22;4703;48.748;19.142;2023-10-08T04:36:01;16.10;99.90
9329;DHT22;4703;48.748;19.142;2023-10-08T04:38:29;16.10;99.90
9329;DHT22;4703;48.748;19.142;2023-10-08T04:40:56;16.20;99.90
9329;DHT22;4703;48.748;19.142;2023-10-08T04:43:35;16.20;99.90
9329;DHT22;4703;48.748;19.142;2023-10-08T04:46:05;16.20;99.90
9329;DHT22;4703;48.748;19.142;2023-10-08T04:48:46;16.30;99.90
9329;DHT22;4703;48.748;19.142;2023-10-08T04:51:13;16.30;99.90
9329;DHT22;4703;48.748;19.142;2023-10-08T04:53:40;16.30;99.90
9329;DHT22;4703;48.748;19.142;2023-10-08T04:56:09;16.40;99.90
9329;DHT22;4703;48.748;19.142;2023-10-08T04:58:47;16.40;99.90
9329;DHT22;4703;48.748;19.142;2023-10-08T05:01:17;16.30;99.90
9329;DHT22;4703;48.748;19.142;2023-10-08T05:03:54;16.30;99.90
9329;DHT22;4703;48.748;19.142;2023-10-08T05:06:32;16.30;99.90
9329;DHT22;4703;48.748;19.142;2023-10-08T05:09:11;16.40;99.90
9329;DHT22;4703;48.748;19.142;2023-10-08T05:11:39;16.40;99.90
9329;DHT22;4703;48.748;19.142;2023-10-08T05:14:23;16.40;99.90
9329;DHT22;4703;48.748;19.142;2023-10-08T05:17:00;16.40;99.90
9329;DHT22;4703;48.748;19.142;2023-10-08T05:19:38;16.40;99.90
9329;DHT22;4703;48.748;19.142;2023-10-08T05:22:28;16.40;99.90
9329;DHT22;4703;48.748;19.142;2023-10-08T05:24:56;16.80;99.90
9329;DHT22;4703;48.748;19.142;2023-10-08T05:27:44;16.50;99.90
9329;DHT22;4703;48.748;19.142;2023-10-08T05:30:22;16.60;99.90
9329;DHT22;4703;48.748;19.142;2023-10-08T05:32:56;16.60;99.90
9329;DHT22;4703;48.748;19.142;2023-10-08T05:35:30;16.60;99.90
9329;DHT22;4703;48.748;19.142;2023-10-08T05:38:11;16.70;99.90
9329;DHT22;4703;48.748;19.142;2023-10-08T05:40:43;16.60;99.90
9329;DHT22;4703;48.748;19.142;2023-10-08T05:46:04;16.70;99.90
9329;DHT22;4703;48.748;19.142;2023-10-08T05:48:54;16.70;99.90
9329;DHT22;4703;48.748;19.142;2023-10-08T05:51:30;16.70;99.90
9329;DHT22;4703;48.748;19.142;2023-10-08T05:54:19;16.70;99.90
9329;DHT22;4703;48.748;19.142;2023-10-08T05:57:01;16.70;99.90
9329;DHT22;4703;48.748;19.142;2023-10-08T05:59:51;16.60;99.90
9329;DHT22;4703;48.748;19.142;2023-10-08T06:05:07;16.70;99.90
9329;DHT22;4703;48.748;19.142;2023-10-08T06:10:30;16.70;99.90
9329;DHT22;4703;48.748;19.142;2023-10-08T06:13:02;16.70;99.90
9329;DHT22;4703;48.748;19.142;2023-10-08T06:18:16;16.80;99.90
9329;DHT22;4703;48.748;19.142;2023-10-08T06:20:46;16.80;99.90
9329;DHT22;4703;48.748;19.142;2023-10-08T06:23:15;16.70;99.90
9329;DHT22;4703;48.748;19.142;2023-10-08T06:25:46;16.70;99.90
9329;DHT22;4703;48.748;19.142;2023-10-08T06:28:17;16.70;99.90
9329;DHT22;4703;48.748;19.142;2023-10-08T06:30:49;16.70;99.90
9329;DHT22;4703;48.748;19.142;2023-10-08T06:33:21;16.70;99.90
9329;DHT22;4703;48.748;19.142;2023-10-08T06:35:49;17.70;99.90
9329;DHT22;4703;48.748;19.142;2023-10-08T06:38:34;16.70;99.90
9329;DHT22;4703;48.748;19.142;2023-10-08T06:41:03;16.70;99.90
9329;DHT22;4703;48.748;19.142;2023-10-08T06:44:01;16.80;99.90
9329;DHT22;4703;48.748;19.142;2023-10-08T06:46:41;16.70;99.90
9329;DHT22;4703;48.748;19.142;2023-10-08T06:49:09;16.70;99.90
9329;DHT22;4703;48.748;19.142;2023-10-08T06:51:41;16.90;99.90
9329;DHT22;4703;48.748;19.142;2023-10-08T06:54:10;16.70;99.90
9329;DHT22;4703;48.748;19.142;2023-10-08T06:56:40;16.70;99.90
9329;DHT22;4703;48.748;19.142;2023-10-08T06:59:14;16.90;99.90
9329;DHT22;4703;48.748;19.142;2023-10-08T07:01:41;16.60;99.90
9329;DHT22;4703;48.748;19.142;2023-10-08T07:04:13;16.60;99.90
9329;DHT22;4703;48.748;19.142;2023-10-08T07:06:42;16.60;99.90
9329;DHT22;4703;48.748;19.142;2023-10-08T07:09:17;16.50;99.90
9329;DHT22;4703;48.748;19.142;2023-10-08T07:12:10;17.00;99.90
9329;DHT22;4703;48.748;19.142;2023-10-08T07:14:41;16.50;99.90
9329;DHT22;4703;48.748;19.142;2023-10-08T07:17:08;16.40;99.90
9329;DHT22;4703;48.748;19.142;2023-10-08T07:19:38;16.40;99.90
9329;DHT22;4703;48.748;19.142;2023-10-08T07:22:08;16.60;99.90
9329;DHT22;4703;48.748;19.142;2023-10-08T07:24:46;16.40;99.90
9329;DHT22;4703;48.748;19.142;2023-10-08T07:27:20;16.40;99.90
9329;DHT22;4703;48.748;19.142;2023-10-08T07:29:49;16.30;99.90
9329;DHT22;4703;48.748;19.142;2023-10-08T07:32:17;16.40;99.90
9329;DHT22;4703;48.748;19.142;2023-10-08T07:34:45;16.30;99.60
9329;DHT22;4703;48.748;19.142;2023-10-08T07:37:12;16.30;99.40
9329;DHT22;4703;48.748;19.142;2023-10-08T07:39:41;16.40;99.40
9329;DHT22;4703;48.748;19.142;2023-10-08T07:42:14;16.70;99.50
9329;DHT22;4703;48.748;19.142;2023-10-08T07:44:41;16.20;99.30
9329;DHT22;4703;48.748;19.142;2023-10-08T07:47:08;16.10;99.30
9329;DHT22;4703;48.748;19.142;2023-10-08T07:49:40;16.10;99.50
9329;DHT22;4703;48.748;19.142;2023-10-08T07:52:10;16.20;99.60
9329;DHT22;4703;48.748;19.142;2023-10-08T07:54:43;16.10;99.50
9329;DHT22;4703;48.748;19.142;2023-10-08T07:57:11;16.10;99.70
9329;DHT22;4703;48.748;19.142;2023-10-08T07:59:41;16.50;99.90
9329;DHT22;4703;48.748;19.142;2023-10-08T08:02:09;16.10;99.90
9329;DHT22;4703;48.748;19.142;2023-10-08T08:04:40;16.10;99.90
9329;DHT22;4703;48.748;19.142;2023-10-08T08:07:10;16.10;99.90
9329;DHT22;4703;48.748;19.142;2023-10-08T08:09:44;16.10;99.90
9329;DHT22;4703;48.748;19.142;2023-10-08T08:12:21;16.10;99.90
9329;DHT22;4703;48.748;19.142;2023-10-08T08:14:51;16.10;99.90
9329;DHT22;4703;48.748;19.142;2023-10-08T08:17:19;16.20;99.90
9329;DHT22;4703;48.748;19.142;2023-10-08T08:19:48;17.70;99.90
9329;DHT22;4703;48.748;19.142;2023-10-08T08:22:19;16.20;99.90
9329;DHT22;4703;48.748;19.142;2023-10-08T08:24:51;16.20;99.90
9329;DHT22;4703;48.748;19.142;2023-10-08T08:27:28;16.30;99.90
9329;DHT22;4703;48.748;19.142;2023-10-08T08:30:00;16.30;99.90
9329;DHT22;4703;48.748;19.142;2023-10-08T08:32:37;16.40;99.70
9329;DHT22;4703;48.748;19.142;2023-10-08T08:35:12;16.40;99.30
9329;DHT22;4703;48.748;19.142;2023-10-08T08:37:43;16.40;99.20
9329;DHT22;4703;48.748;19.142;2023-10-08T08:40:13;16.40;99.10
9329;DHT22;4703;48.748;19.142;2023-10-08T08:42:48;16.40;99.00
9329;DHT22;4703;48.748;19.142;2023-10-08T08:45:21;16.40;99.00
9329;DHT22;4703;48.748;19.142;2023-10-08T08:47:49;16.40;98.60
9329;DHT22;4703;48.748;19.142;2023-10-08T08:50:18;16.40;98.00
9329;DHT22;4703;48.748;19.142;2023-10-08T08:52:46;16.40;97.50
9329;DHT22;4703;48.748;19.142;2023-10-08T08:55:14;16.40;97.10
9329;DHT22;4703;48.748;19.142;2023-10-08T08:57:42;16.40;97.20
9329;DHT22;4703;48.748;19.142;2023-10-08T09:00:16;16.40;96.80
9329;DHT22;4703;48.748;19.142;2023-10-08T09:02:45;16.40;96.60
9329;DHT22;4703;48.748;19.142;2023-10-08T09:05:15;16.40;96.10
9329;DHT22;4703;48.748;19.142;2023-10-08T09:08:04;16.30;96.20
9329;DHT22;4703;48.748;19.142;2023-10-08T09:10:35;16.30;95.90
9329;DHT22;4703;48.748;19.142;2023-10-08T09:13:06;16.10;95.90
9329;DHT22;4703;48.748;19.142;2023-10-08T09:15:36;16.30;95.60
9329;DHT22;4703;48.748;19.142;2023-10-08T09:18:06;16.20;95.50
9329;DHT22;4703;48.748;19.142;2023-10-08T09:20:37;16.20;95.20
9329;DHT22;4703;48.748;19.142;2023-10-08T09:23:16;16.40;95.40
9329;DHT22;4703;48.748;19.142;2023-10-08T09:25:49;16.20;94.80
9329;DHT22;4703;48.748;19.142;2023-10-08T09:28:31;16.10;94.60
9329;DHT22;4703;48.748;19.142;2023-10-08T09:31:00;16.10;94.20
9329;DHT22;4703;48.748;19.142;2023-10-08T09:33:28;16.30;94.30
9329;DHT22;4703;48.748;19.142;2023-10-08T09:35:55;16.80;94.30
9329;DHT22;4703;48.748;19.142;2023-10-08T09:38:29;16.20;93.80
9329;DHT22;4703;48.748;19.142;2023-10-08T09:40:58;16.10;93.50
9329;DHT22;4703;48.748;19.142;2023-10-08T09:43:32;16.40;94.30
9329;DHT22;4703;48.748;19.142;2023-10-08T09:48:50;16.40;93.40
9329;DHT22;4703;48.748;19.142;2023-10-08T09:51:20;16.60;93.30
9329;DHT22;4703;48.748;19.142;2023-10-08T09:54:24;16.70;92.70
9329;DHT22;4703;48.748;19.142;2023-10-08T09:57:02;16.80;92.10
9329;DHT22;4703;48.748;19.142;2023-10-08T09:59:30;16.80;92.00
9329;DHT22;4703;48.748;19.142;2023-10-08T10:01:57;16.80;92.10
9329;DHT22;4703;48.748;19.142;2023-10-08T10:04:26;16.70;92.00
9329;DHT22;4703;48.748;19.142;2023-10-08T10:07:09;16.80;91.70
9329;DHT22;4703;48.748;19.142;2023-10-08T10:09:43;16.50;91.10
9329;DHT22;4703;48.748;19.142;2023-10-08T10:12:18;16.30;90.60
9329;DHT22;4703;48.748;19.142;2023-10-08T10:14:55;16.10;90.90
9329;DHT22;4703;48.748;19.142;2023-10-08T10:17:26;16.00;90.60
9329;DHT22;4703;48.748;19.142;2023-10-08T10:20:10;15.90;90.70
9329;DHT22;4703;48.748;19.142;2023-10-08T10:22:43;15.80;90.80
9329;DHT22;4703;48.748;19.142;2023-10-08T10:25:11;15.70;90.70
9329;DHT22;4703;48.748;19.142;2023-10-08T10:30:20;15.60;91.10
9329;DHT22;4703;48.748;19.142;2023-10-08T10:32:54;15.70;91.20
9329;DHT22;4703;48.748;19.142;2023-10-08T10:35:21;16.00;91.10
9329;DHT22;4703;48.748;19.142;2023-10-08T10:37:50;15.80;91.20
9329;DHT22;4703;48.748;19.142;2023-10-08T10:40:30;16.20;91.10
9329;DHT22;4703;48.748;19.142;2023-10-08T10:43:09;16.10;91.40
9329;DHT22;4703;48.748;19.142;2023-10-08T10:45:36;16.10;90.90
9329;DHT22;4703;48.748;19.142;2023-10-08T10:48:05;16.10;90.50
9329;DHT22;4703;48.748;19.142;2023-10-08T10:50:50;16.10;87.40
9329;DHT22;4703;48.748;19.142;2023-10-08T10:53:37;16.00;88.70
9329;DHT22;4703;48.748;19.142;2023-10-08T10:56:15;16.00;86.30
9329;DHT22;4703;48.748;19.142;2023-10-08T10:59:02;16.00;87.10
9329;DHT22;4703;48.748;19.142;2023-10-08T11:01:49;16.10;88.40
9329;DHT22;4703;48.748;19.142;2023-10-08T11:04:19;16.20;85.70
9329;DHT22;4703;48.748;19.142;2023-10-08T11:06:56;16.60;86.20
9329;DHT22;4703;48.748;19.142;2023-10-08T11:09:25;17.70;87.10
9329;DHT22;4703;48.748;19.142;2023-10-08T11:12:08;16.50;84.40
9329;DHT22;4703;48.748;19.142;2023-10-08T11:14:42;16.70;86.30
9329;DHT22;4703;48.748;19.142;2023-10-08T11:17:17;16.90;84.70
9329;DHT22;4703;48.748;19.142;2023-10-08T11:19:49;17.00;83.40
9329;DHT22;4703;48.748;19.142;2023-10-08T11:22:18;17.10;83.70
9329;DHT22;4703;48.748;19.142;2023-10-08T11:24:46;17.20;83.00
9329;DHT22;4703;48.748;19.142;2023-10-08T11:27:19;17.30;83.00
9329;DHT22;4703;48.748;19.142;2023-10-08T11:29:56;17.10;82.20
9329;DHT22;4703;48.748;19.142;2023-10-08T11:32:25;17.10;82.30
9329;DHT22;4703;48.748;19.142;2023-10-08T11:34:57;16.90;83.00
9329;DHT22;4703;48.748;19.142;2023-10-08T11:37:32;16.80;84.80
9329;DHT22;4703;48.748;19.142;2023-10-08T11:40:03;16.80;84.70
9329;DHT22;4703;48.748;19.142;2023-10-08T11:42:44;16.70;83.40
9329;DHT22;4703;48.748;19.142;2023-10-08T11:45:11;16.70;84.90
9329;DHT22;4703;48.748;19.142;2023-10-08T11:47:47;16.70;84.90
9329;DHT22;4703;48.748;19.142;2023-10-08T11:50:15;16.50;84.30
9329;DHT22;4703;48.748;19.142;2023-10-08T11:52:46;16.40;83.70
9329;DHT22;4703;48.748;19.142;2023-10-08T11:55:13;16.30;84.40
9329;DHT22;4703;48.748;19.142;2023-10-08T11:57:47;16.30;85.30
9329;DHT22;4703;48.748;19.142;2023-10-08T12:00:16;16.30;83.90
9329;DHT22;4703;48.748;19.142;2023-10-08T12:02:49;17.70;85.50
9329;DHT22;4703;48.748;19.142;2023-10-08T12:05:17;16.30;83.70
9329;DHT22;4703;48.748;19.142;2023-10-08T12:07:47;16.40;82.40
9329;DHT22;4703;48.748;19.142;2023-10-08T12:10:15;16.30;80.40
9329;DHT22;4703;48.748;19.142;2023-10-08T12:12:54;16.30;80.20
9329;DHT22;4703;48.748;19.142;2023-10-08T12:15:22;17.40;79.50
9329;DHT22;4703;48.748;19.142;2023-10-08T12:17:49;16.20;78.10
9329;DHT22;4703;48.748;19.142;2023-10-08T12:20:36;16.10;78.60
9329;DHT22;4703;48.748;19.142;2023-10-08T12:23:07;16.20;79.70
9329;DHT22;4703;48.748;19.142;2023-10-08T12:25:37;16.10;80.00
9329;DHT22;4703;48.748;19.142;2023-10-08T12:28:05;16.30;79.60
9329;DHT22;4703;48.748;19.142;2023-10-08T12:30:33;16.10;79.40
9329;DHT22;4703;48.748;19.142;2023-10-08T12:33:08;16.00;79.50
9329;DHT22;4703;48.748;19.142;2023-10-08T12:35:40;16.10;79.30
9329;DHT22;4703;48.748;19.142;2023-10-08T12:38:07;16.10;80.20
9329;DHT22;4703;48.748;19.142;2023-10-08T12:40:36;16.00;77.10
9329;DHT22;4703;48.748;19.142;2023-10-08T12:43:29;16.00;76.70
9329;DHT22;4703;48.748;19.142;2023-10-08T12:45:57;16.40;78.10
9329;DHT22;4703;48.748;19.142;2023-10-08T12:48:26;17.80;79.40
9329;DHT22;4703;48.748;19.142;2023-10-08T12:50:55;15.90;77.70
9329;DHT22;4703;48.748;19.142;2023-10-08T12:53:27;16.00;78.00
9329;DHT22;4703;48.748;19.142;2023-10-08T12:56:01;15.90;78.80
9329;DHT22;4703;48.748;19.142;2023-10-08T12:58:39;15.90;78.80
9329;DHT22;4703;48.748;19.142;2023-10-08T13:01:11;16.00;79.60
9329;DHT22;4703;48.748;19.142;2023-10-08T13:03:38;15.90;78.70
9329;DHT22;4703;48.748;19.142;2023-10-08T13:06:10;15.90;78.50
9329;DHT22;4703;48.748;19.142;2023-10-08T13:09:04;16.20;78.00
9329;DHT22;4703;48.748;19.142;2023-10-08T13:11:39;16.00;76.10
9329;DHT22;4703;48.748;19.142;2023-10-08T13:14:07;16.00;74.80
9329;DHT22;4703;48.748;19.142;2023-10-08T13:16:34;16.10;75.70
9329;DHT22;4703;48.748;19.142;2023-10-08T13:19:05;16.10;75.70
9329;DHT22;4703;48.748;19.142;2023-10-08T13:21:35;16.10;75.40
9329;DHT22;4703;48.748;19.142;2023-10-08T13:24:04;16.10;73.90
9329;DHT22;4703;48.748;19.142;2023-10-08T13:26:36;16.10;75.20
9329;DHT22;4703;48.748;19.142;2023-10-08T13:29:05;16.10;74.70
9329;DHT22;4703;48.748;19.142;2023-10-08T13:31:32;16.10;74.80
9329;DHT22;4703;48.748;19.142;2023-10-08T13:34:05;16.50;76.30
9329;DHT22;4703;48.748;19.142;2023-10-08T13:36:36;16.20;75.10
9329;DHT22;4703;48.748;19.142;2023-10-08T13:39:07;16.70;76.20
9329;DHT22;4703;48.748;19.142;2023-10-08T13:41:37;15.90;74.70
9329;DHT22;4703;48.748;19.142;2023-10-08T13:44:05;16.20;75.80
9329;DHT22;4703;48.748;19.142;2023-10-08T13:46:33;16.20;75.70
9329;DHT22;4703;48.748;19.142;2023-10-08T13:49:03;16.60;76.50
9329;DHT22;4703;48.748;19.142;2023-10-08T13:51:32;15.80;74.50
9329;DHT22;4703;48.748;19.142;2023-10-08T13:54:02;16.30;75.60
9329;DHT22;4703;48.748;19.142;2023-10-08T13:56:38;15.80;76.30
9329;DHT22;4703;48.748;19.142;2023-10-08T13:59:09;15.80;77.60
9329;DHT22;4703;48.748;19.142;2023-10-08T14:01:44;16.40;77.70
9329;DHT22;4703;48.748;19.142;2023-10-08T14:04:19;15.70;74.40
9329;DHT22;4703;48.748;19.142;2023-10-08T14:07:03;15.70;72.00
9329;DHT22;4703;48.748;19.142;2023-10-08T14:09:31;15.60;71.80
9329;DHT22;4703;48.748;19.142;2023-10-08T14:11:59;16.10;71.20
9329;DHT22;4703;48.748;19.142;2023-10-08T14:14:27;15.90;71.40
9329;DHT22;4703;48.748;19.142;2023-10-08T14:17:01;15.50;69.90
9329;DHT22;4703;48.748;19.142;2023-10-08T14:19:38;15.40;70.30
9329;DHT22;4703;48.748;19.142;2023-10-08T14:22:19;16.40;70.50
9329;DHT22;4703;48.748;19.142;2023-10-08T14:24:49;15.30;68.60
9329;DHT22;4703;48.748;19.142;2023-10-08T14:27:26;15.30;67.50
9329;DHT22;4703;48.748;19.142;2023-10-08T14:29:59;15.70;68.10
9329;DHT22;4703;48.748;19.142;2023-10-08T14:32:32;15.20;67.90
9329;DHT22;4703;48.748;19.142;2023-10-08T14:35:00;15.50;68.80
9329;DHT22;4703;48.748;19.142;2023-10-08T14:37:45;15.20;68.60
9329;DHT22;4703;48.748;19.142;2023-10-08T14:40:30;15.10;67.30
9329;DHT22;4703;48.748;19.142;2023-10-08T14:43:15;15.10;68.30
9329;DHT22;4703;48.748;19.142;2023-10-08T14:45:46;15.00;68.10
9329;DHT22;4703;48.748;19.142;2023-10-08T14:48:14;15.00;68.90
9329;DHT22;4703;48.748;19.142;2023-10-08T14:50:41;15.00;68.50
9329;DHT22;4703;48.748;19.142;2023-10-08T14:53:09;15.50;68.50
9329;DHT22;4703;48.748;19.142;2023-10-08T14:55:36;15.00;66.40
9329;DHT22;4703;48.748;19.142;2023-10-08T14:58:06;15.50;67.30
9329;DHT22;4703;48.748;19.142;2023-10-08T15:00:38;15.10;68.10
9329;DHT22;4703;48.748;19.142;2023-10-08T15:03:06;15.50;67.30
9329;DHT22;4703;48.748;19.142;2023-10-08T15:05:35;15.70;68.30
9329;DHT22;4703;48.748;19.142;2023-10-08T15:08:07;18.00;68.70
9329;DHT22;4703;48.748;19.142;2023-10-08T15:10:38;16.00;65.20
9329;DHT22;4703;48.748;19.142;2023-10-08T15:13:06;16.20;64.20
9329;DHT22;4703;48.748;19.142;2023-10-08T15:15:33;16.30;65.60
9329;DHT22;4703;48.748;19.142;2023-10-08T15:18:06;16.40;64.10
9329;DHT22;4703;48.748;19.142;2023-10-08T15:20:34;16.20;63.60
9329;DHT22;4703;48.748;19.142;2023-10-08T15:23:02;16.10;63.90
9329;DHT22;4703;48.748;19.142;2023-10-08T15:25:30;15.90;64.50
9329;DHT22;4703;48.748;19.142;2023-10-08T15:27:57;15.70;64.70
9329;DHT22;4703;48.748;19.142;2023-10-08T15:30:24;15.60;65.00
9329;DHT22;4703;48.748;19.142;2023-10-08T15:32:52;15.20;65.30
9329;DHT22;4703;48.748;19.142;2023-10-08T15:35:22;15.00;65.80
9329;DHT22;4703;48.748;19.142;2023-10-08T15:37:52;14.80;66.30
9329;DHT22;4703;48.748;19.142;2023-10-08T15:40:21;14.70;66.00
9329;DHT22;4703;48.748;19.142;2023-10-08T15:42:54;14.50;67.10
9329;DHT22;4703;48.748;19.142;2023-10-08T15:45:23;14.60;67.90
9329;DHT22;4703;48.748;19.142;2023-10-08T15:47:52;14.50;68.10
9329;DHT22;4703;48.748;19.142;2023-10-08T15:50:21;14.40;68.70
9329;DHT22;4703;48.748;19.142;2023-10-08T15:52:51;14.10;68.00
9329;DHT22;4703;48.748;19.142;2023-10-08T15:55:20;14.00;68.20
9329;DHT22;4703;48.748;19.142;2023-10-08T15:57:49;14.10;69.00
9329;DHT22;4703;48.748;19.142;2023-10-08T16:00:17;13.80;68.30
9329;DHT22;4703;48.748;19.142;2023-10-08T16:02:45;13.70;69.00
9329;DHT22;4703;48.748;19.142;2023-10-08T16:05:14;13.60;69.30
9329;DHT22;4703;48.748;19.142;2023-10-08T16:07:44;14.50;70.80
9329;DHT22;4703;48.748;19.142;2023-10-08T16:10:11;13.50;70.70
9329;DHT22;4703;48.748;19.142;2023-10-08T16:12:38;13.40;71.50
9329;DHT22;4703;48.748;19.142;2023-10-08T16:15:06;14.10;72.20
9329;DHT22;4703;48.748;19.142;2023-10-08T16:17:33;13.40;71.30
9329;DHT22;4703;48.748;19.142;2023-10-08T16:20:00;13.30;71.50
9329;DHT22;4703;48.748;19.142;2023-10-08T16:22:42;14.60;73.10
9329;DHT22;4703;48.748;19.142;2023-10-08T16:25:11;13.60;72.30
9329;DHT22;4703;48.748;19.142;2023-10-08T16:27:47;13.30;72.40
9329;DHT22;4703;48.748;19.142;2023-10-08T16:30:23;13.60;73.70
9329;DHT22;4703;48.748;19.142;2023-10-08T16:32:53;13.00;73.90
9329;DHT22;4703;48.748;19.142;2023-10-08T16:35:21;13.40;74.90